createdAt,value
2018-09-15T00:00:06.792Z,970.83
2018-09-15T00:01:06.744Z,970.82
2018-09-15T00:02:06.690Z,970.79
2018-09-15T00:03:06.643Z,970.80
2018-09-15T00:04:06.624Z,970.80
2018-09-15T00:05:06.543Z,970.81
2018-09-15T00:06:06.493Z,970.84
2018-09-15T00:07:06.478Z,970.83
2018-09-15T00:08:06.397Z,970.84
2018-09-15T00:09:06.351Z,970.85
2018-09-15T00:10:06.332Z,970.86
2018-09-15T00:11:06.260Z,970.86
2018-09-15T00:12:06.204Z,970.89
2018-09-15T00:13:06.185Z,970.89
2018-09-15T00:14:06.104Z,970.90
2018-09-15T00:15:06.056Z,970.93
2018-09-15T00:16:06.008Z,970.89
2018-09-15T00:17:05.998Z,970.87
2018-09-15T00:18:05.912Z,970.92
2018-09-15T00:19:05.861Z,970.92
2018-09-15T00:20:05.811Z,970.92
2018-09-15T00:21:05.762Z,970.92
2018-09-15T00:22:05.745Z,970.96
2018-09-15T00:23:05.739Z,970.99
2018-09-15T00:24:05.615Z,971.03
2018-09-15T00:25:05.571Z,971.03
2018-09-15T00:26:05.516Z,971.01
2018-09-15T00:27:05.507Z,971.01
2018-09-15T00:28:05.419Z,971.01
2018-09-15T00:29:05.368Z,970.99
2018-09-15T00:30:05.322Z,971.05
2018-09-15T00:31:05.276Z,971.04
2018-09-15T00:32:05.261Z,971.05
2018-09-15T00:33:05.217Z,971.03
2018-09-15T00:34:05.124Z,971.01
2018-09-15T00:35:05.075Z,971.02
2018-09-15T00:36:05.026Z,971.01
2018-09-15T00:37:04.980Z,971.03
2018-09-15T00:38:04.957Z,971.00
2018-09-15T00:39:04.961Z,971.05
2018-09-15T00:40:04.828Z,971.05
2018-09-15T00:41:04.781Z,971.10
2018-09-15T00:42:04.770Z,971.08
2018-09-15T00:43:04.678Z,971.07
2018-09-15T00:44:04.658Z,971.09
2018-09-15T00:45:04.582Z,971.06
2018-09-15T00:46:04.528Z,971.04
2018-09-15T00:47:04.481Z,971.00
2018-09-15T00:48:04.437Z,970.96
2018-09-15T00:49:04.413Z,970.87
2018-09-15T00:50:04.334Z,970.87
2018-09-15T00:51:04.286Z,970.90
2018-09-15T00:52:04.237Z,970.93
2018-09-15T00:53:04.188Z,970.98
2018-09-15T00:54:04.188Z,971.01
2018-09-15T00:55:04.085Z,971.03
2018-09-15T00:56:04.035Z,971.07
2018-09-15T00:57:03.986Z,971.07
2018-09-15T00:58:03.941Z,971.10
2018-09-15T00:59:03.920Z,971.10
2018-09-15T01:00:03.841Z,971.09
2018-09-15T01:01:03.821Z,971.04
2018-09-15T01:02:03.739Z,971.02
2018-09-15T01:03:03.697Z,971.03
2018-09-15T01:04:03.637Z,971.06
2018-09-15T01:05:03.592Z,971.07
2018-09-15T01:06:03.674Z,971.05
2018-09-15T01:07:03.494Z,971.03
2018-09-15T01:08:03.442Z,971.02
2018-09-15T01:09:03.391Z,971.06
2018-09-15T01:10:03.343Z,971.09
2018-09-15T01:11:03.327Z,971.13
2018-09-15T01:12:03.242Z,971.11
2018-09-15T01:13:03.195Z,971.14
2018-09-15T01:14:03.247Z,971.10
2018-09-15T01:15:03.096Z,971.08
2018-09-15T01:16:03.093Z,971.05
2018-09-15T01:17:03.028Z,971.01
2018-09-15T01:18:02.950Z,971.00
2018-09-15T01:19:02.897Z,971.01
2018-09-15T01:20:02.858Z,971.00
2018-09-15T01:21:02.835Z,970.98
2018-09-15T01:22:02.749Z,970.97
2018-09-15T01:23:02.709Z,970.95
2018-09-15T01:24:02.687Z,970.93
2018-09-15T01:25:02.600Z,970.93
2018-09-15T01:26:02.636Z,970.97
2018-09-15T01:27:02.508Z,971.01
2018-09-15T01:28:02.450Z,970.95
2018-09-15T01:29:02.433Z,970.98
2018-09-15T01:30:02.350Z,971.00
2018-09-15T01:31:02.304Z,971.05
2018-09-15T01:32:02.282Z,971.04
2018-09-15T01:33:02.234Z,971.03
2018-09-15T01:34:02.151Z,971.05
2018-09-15T01:35:02.105Z,971.09
2018-09-15T01:36:02.058Z,971.09
2018-09-15T01:37:02.029Z,971.09
2018-09-15T01:38:01.987Z,971.11
2018-09-15T01:39:01.905Z,971.12
2018-09-15T01:40:01.868Z,971.12
2018-09-15T01:41:01.810Z,971.10
2018-09-15T01:42:01.755Z,971.08
2018-09-15T01:43:01.744Z,971.12
2018-09-15T01:44:01.655Z,971.10
2018-09-15T01:45:01.626Z,971.13
2018-09-15T01:46:01.556Z,971.12
2018-09-15T01:47:01.506Z,971.12
2018-09-15T01:48:01.487Z,971.15
2018-09-15T01:49:01.407Z,971.18
2018-09-15T01:50:01.394Z,971.10
2018-09-15T01:51:01.310Z,971.00
2018-09-15T01:52:01.259Z,970.97
2018-09-15T01:53:01.206Z,970.95
2018-09-15T01:54:01.161Z,970.98
2018-09-15T01:55:01.138Z,970.99
2018-09-15T01:56:01.059Z,971.03
2018-09-15T01:57:01.007Z,971.06
2018-09-15T01:58:00.961Z,971.10
2018-09-15T01:59:00.910Z,971.13
2018-09-15T02:00:00.890Z,971.10
2018-09-15T02:01:00.811Z,971.10
2018-09-15T02:02:00.789Z,971.15
2018-09-15T02:03:00.708Z,971.13
2018-09-15T02:04:00.659Z,971.14
2018-09-15T02:05:00.608Z,971.15
2018-09-15T02:06:00.562Z,971.13
2018-09-15T02:07:00.542Z,971.18
2018-09-15T02:08:00.459Z,971.15
2018-09-15T02:09:00.409Z,971.13
2018-09-15T02:10:00.367Z,971.14
2018-09-15T02:11:00.342Z,971.15
2018-09-15T02:12:00.260Z,971.17
2018-09-15T02:13:00.252Z,971.20
2018-09-15T02:14:00.190Z,971.19
2018-09-15T02:15:00.109Z,971.17
2018-09-15T02:16:00.058Z,971.18
2018-09-15T02:17:00.009Z,971.16
2018-09-15T02:17:59.989Z,971.18
2018-09-15T02:18:59.912Z,971.18
2018-09-15T02:19:59.862Z,971.20
2018-09-15T02:20:59.813Z,971.18
2018-09-15T02:21:59.791Z,971.17
2018-09-15T02:22:59.730Z,971.17
2018-09-15T02:23:59.660Z,971.20
2018-09-15T02:24:59.639Z,971.17
2018-09-15T02:25:59.560Z,971.21
2018-09-15T02:26:59.517Z,971.23
2018-09-15T02:27:59.461Z,971.21
2018-09-15T02:28:59.461Z,971.21
2018-09-15T02:29:59.393Z,971.27
2018-09-15T02:30:59.310Z,971.25
2018-09-15T02:31:59.258Z,971.21
2018-09-15T02:32:59.254Z,971.25
2018-09-15T02:33:59.156Z,971.29
2018-09-15T02:34:59.133Z,971.25
2018-09-15T02:35:59.063Z,971.27
2018-09-15T02:36:59.009Z,971.26
2018-09-15T02:37:58.989Z,971.27
2018-09-15T02:38:58.907Z,971.25
2018-09-15T02:39:58.885Z,971.27
2018-09-15T02:40:58.807Z,971.24
2018-09-15T02:41:58.759Z,971.21
2018-09-15T02:42:58.707Z,971.24
2018-09-15T02:43:58.687Z,971.22
2018-09-15T02:44:58.607Z,971.22
2018-09-15T02:45:58.561Z,971.23
2018-09-15T02:46:58.542Z,971.21
2018-09-15T02:47:58.454Z,971.23
2018-09-15T02:48:58.403Z,971.25
2018-09-15T02:49:58.357Z,971.24
2018-09-15T02:50:58.301Z,971.25
2018-09-15T02:51:58.291Z,971.26
2018-09-15T02:52:58.204Z,971.24
2018-09-15T02:53:58.156Z,971.26
2018-09-15T02:54:58.108Z,971.22
2018-09-15T02:55:58.053Z,971.26
2018-09-15T02:56:58.037Z,971.27
2018-09-15T02:57:57.953Z,971.28
2018-09-15T02:58:57.904Z,971.30
2018-09-15T02:59:57.851Z,971.32
2018-09-15T03:00:57.850Z,971.35
2018-09-15T03:01:57.754Z,971.33
2018-09-15T03:02:57.704Z,971.33
2018-09-15T03:03:57.648Z,971.34
2018-09-15T03:04:57.601Z,971.35
2018-09-15T03:05:57.582Z,971.38
2018-09-15T03:06:57.501Z,971.32
2018-09-15T03:07:57.449Z,971.36
2018-09-15T03:08:57.430Z,971.36
2018-09-15T03:09:57.348Z,971.33
2018-09-15T03:10:57.299Z,971.35
2018-09-15T03:11:57.245Z,971.37
2018-09-15T03:12:57.226Z,971.39
2018-09-15T03:13:57.143Z,971.40
2018-09-15T03:14:57.095Z,971.37
2018-09-15T03:15:57.045Z,971.41
2018-09-15T03:16:56.990Z,971.41
2018-09-15T03:17:56.979Z,971.44
2018-09-15T03:18:56.889Z,971.47
2018-09-15T03:19:56.841Z,971.48
2018-09-15T03:20:56.796Z,971.47
2018-09-15T03:21:56.790Z,971.50
2018-09-15T03:22:56.688Z,971.50
2018-09-15T03:23:56.637Z,971.47
2018-09-15T03:24:56.587Z,971.44
2018-09-15T03:25:56.533Z,971.46
2018-09-15T03:26:56.522Z,971.43
2018-09-15T03:27:56.434Z,971.44
2018-09-15T03:28:56.383Z,971.46
2018-09-15T03:29:56.332Z,971.45
2018-09-15T03:30:56.313Z,971.47
2018-09-15T03:31:56.231Z,971.43
2018-09-15T03:32:56.181Z,971.44
2018-09-15T03:33:56.132Z,971.42
2018-09-15T03:34:56.081Z,971.42
2018-09-15T03:35:56.061Z,971.42
2018-09-15T03:36:55.980Z,971.43
2018-09-15T03:37:55.960Z,971.41
2018-09-15T03:38:55.879Z,971.42
2018-09-15T03:39:55.828Z,971.43
2018-09-15T03:40:55.805Z,971.40
2018-09-15T03:41:55.875Z,971.43
2018-09-15T03:42:55.679Z,971.45
2018-09-15T03:43:55.653Z,971.44
2018-09-15T03:44:55.572Z,971.46
2018-09-15T03:45:55.520Z,971.52
2018-09-15T03:46:55.476Z,971.50
2018-09-15T03:47:55.447Z,971.52
2018-09-15T03:48:55.373Z,971.53
2018-09-15T03:49:55.348Z,971.55
2018-09-15T03:50:55.271Z,971.58
2018-09-15T03:51:55.249Z,971.57
2018-09-15T03:52:55.196Z,971.62
2018-09-15T03:53:55.112Z,971.61
2018-09-15T03:54:55.061Z,971.60
2018-09-15T03:55:55.044Z,971.61
2018-09-15T03:56:54.993Z,971.59
2018-09-15T03:57:54.907Z,971.60
2018-09-15T03:58:54.904Z,971.59
2018-09-15T03:59:54.855Z,971.60
2018-09-15T04:00:54.752Z,971.63
2018-09-15T04:01:54.705Z,971.61
2018-09-15T04:02:54.652Z,971.65
2018-09-15T04:03:54.641Z,971.67
2018-09-15T04:04:54.550Z,971.61
2018-09-15T04:05:54.496Z,971.65
2018-09-15T04:06:54.444Z,971.66
2018-09-15T04:07:54.394Z,971.63
2018-09-15T04:08:54.374Z,971.64
2018-09-15T04:09:54.292Z,971.68
2018-09-15T04:10:54.242Z,971.64
2018-09-15T04:11:54.192Z,971.61
2018-09-15T04:12:54.137Z,971.62
2018-09-15T04:13:54.119Z,971.65
2018-09-15T04:14:54.035Z,971.67
2018-09-15T04:15:53.983Z,971.65
2018-09-15T04:16:53.964Z,971.61
2018-09-15T04:17:53.887Z,971.64
2018-09-15T04:18:53.830Z,971.67
2018-09-15T04:19:53.782Z,971.68
2018-09-15T04:20:53.764Z,971.71
2018-09-15T04:21:53.709Z,971.71
2018-09-15T04:22:53.627Z,971.72
2018-09-15T04:23:53.576Z,971.71
2018-09-15T04:24:53.552Z,971.70
2018-09-15T04:25:53.506Z,971.72
2018-09-15T04:26:53.418Z,971.76
2018-09-15T04:27:53.404Z,971.78
2018-09-15T04:28:53.317Z,971.74
2018-09-15T04:29:53.269Z,971.73
2018-09-15T04:30:53.214Z,971.72
2018-09-15T04:31:53.165Z,971.75
2018-09-15T04:32:53.152Z,971.79
2018-09-15T04:33:53.059Z,971.78
2018-09-15T04:34:53.009Z,971.79
2018-09-15T04:35:52.956Z,971.83
2018-09-15T04:36:52.906Z,971.84
2018-09-15T04:37:52.885Z,971.81
2018-09-15T04:38:52.803Z,971.76
2018-09-15T04:39:52.753Z,971.81
2018-09-15T04:40:52.698Z,971.81
2018-09-15T04:41:52.660Z,971.86
2018-09-15T04:42:52.632Z,971.86
2018-09-15T04:43:52.547Z,971.90
2018-09-15T04:44:52.494Z,971.87
2018-09-15T04:45:52.449Z,971.88
2018-09-15T04:46:52.424Z,971.92
2018-09-15T04:47:52.343Z,971.88
2018-09-15T04:48:52.289Z,971.85
2018-09-15T04:49:52.239Z,971.86
2018-09-15T04:50:52.188Z,971.87
2018-09-15T04:51:52.166Z,971.89
2018-09-15T04:52:52.086Z,971.90
2018-09-15T04:53:52.037Z,971.96
2018-09-15T04:54:51.980Z,971.98
2018-09-15T04:55:51.965Z,971.99
2018-09-15T04:56:51.877Z,972.00
2018-09-15T04:57:51.825Z,972.04
2018-09-15T04:58:51.846Z,972.01
2018-09-15T04:59:51.721Z,972.03
2018-09-15T05:00:51.703Z,972.03
2018-09-15T05:01:51.621Z,972.04
2018-09-15T05:02:51.567Z,972.07
2018-09-15T05:03:51.515Z,972.08
2018-09-15T05:04:51.465Z,972.11
2018-09-15T05:05:51.443Z,972.10
2018-09-15T05:06:51.359Z,972.14
2018-09-15T05:07:51.308Z,972.15
2018-09-15T05:08:51.259Z,972.18
2018-09-15T05:09:51.237Z,972.17
2018-09-15T05:10:51.195Z,972.21
2018-09-15T05:11:51.146Z,972.21
2018-09-15T05:12:51.069Z,972.25
2018-09-15T05:13:50.999Z,972.27
2018-09-15T05:14:50.948Z,972.27
2018-09-15T05:15:50.896Z,972.26
2018-09-15T05:16:50.875Z,972.28
2018-09-15T05:17:50.792Z,972.28
2018-09-15T05:18:50.742Z,972.30
2018-09-15T05:19:50.692Z,972.32
2018-09-15T05:20:50.668Z,972.31
2018-09-15T05:21:50.624Z,972.30
2018-09-15T05:22:50.541Z,972.35
2018-09-15T05:23:50.480Z,972.33
2018-09-15T05:24:50.432Z,972.32
2018-09-15T05:25:50.378Z,972.28
2018-09-15T05:26:50.361Z,972.33
2018-09-15T05:27:50.311Z,972.32
2018-09-15T05:28:50.226Z,972.36
2018-09-15T05:29:50.175Z,972.35
2018-09-15T05:30:50.122Z,972.38
2018-09-15T05:31:50.071Z,972.38
2018-09-15T05:32:50.053Z,972.37
2018-09-15T05:33:49.972Z,972.38
2018-09-15T05:34:49.915Z,972.40
2018-09-15T05:35:49.860Z,972.40
2018-09-15T05:36:49.841Z,972.42
2018-09-15T05:37:49.794Z,972.43
2018-09-15T05:38:49.708Z,972.43
2018-09-15T05:39:49.693Z,972.45
2018-09-15T05:40:49.605Z,972.49
2018-09-15T05:41:49.552Z,972.48
2018-09-15T05:42:49.533Z,972.49
2018-09-15T05:43:49.449Z,972.49
2018-09-15T05:44:49.397Z,972.47
2018-09-15T05:45:49.345Z,972.49
2018-09-15T05:46:49.299Z,972.55
2018-09-15T05:47:49.270Z,972.56
2018-09-15T05:48:49.190Z,972.58
2018-09-15T05:49:49.227Z,972.60
2018-09-15T05:50:49.089Z,972.60
2018-09-15T05:51:49.037Z,972.60
2018-09-15T05:52:49.030Z,972.61
2018-09-15T05:53:48.934Z,972.60
2018-09-15T05:54:48.881Z,972.64
2018-09-15T05:55:48.829Z,972.61
2018-09-15T05:56:48.776Z,972.59
2018-09-15T05:57:48.756Z,972.61
2018-09-15T05:58:48.711Z,972.60
2018-09-15T05:59:48.627Z,972.65
2018-09-15T06:00:48.572Z,972.65
2018-09-15T06:01:48.598Z,972.70
2018-09-15T06:02:48.473Z,972.69
2018-09-15T06:03:48.447Z,972.76
2018-09-15T06:04:48.365Z,972.76
2018-09-15T06:05:48.314Z,972.76
2018-09-15T06:06:48.268Z,972.78
2018-09-15T06:07:48.238Z,972.79
2018-09-15T06:08:48.197Z,972.77
2018-09-15T06:09:48.147Z,972.75
2018-09-15T06:10:48.058Z,972.76
2018-09-15T06:11:48.006Z,972.75
2018-09-15T06:12:47.957Z,972.75
2018-09-15T06:13:47.918Z,972.77
2018-09-15T06:14:47.882Z,972.79
2018-09-15T06:15:47.806Z,972.82
2018-09-15T06:16:47.779Z,972.84
2018-09-15T06:17:47.698Z,972.89
2018-09-15T06:18:47.652Z,972.83
2018-09-15T06:19:47.594Z,972.86
2018-09-15T06:20:47.577Z,972.86
2018-09-15T06:21:47.494Z,972.82
2018-09-15T06:22:47.446Z,972.85
2018-09-15T06:23:47.397Z,972.87
2018-09-15T06:24:47.373Z,972.86
2018-09-15T06:25:47.291Z,972.90
2018-09-15T06:26:47.239Z,972.87
2018-09-15T06:27:47.219Z,972.87
2018-09-15T06:28:47.136Z,972.91
2018-09-15T06:29:47.115Z,972.93
2018-09-15T06:30:47.065Z,972.90
2018-09-15T06:31:46.986Z,972.90
2018-09-15T06:32:46.930Z,972.92
2018-09-15T06:33:46.880Z,972.91
2018-09-15T06:34:46.863Z,972.95
2018-09-15T06:35:46.791Z,972.92
2018-09-15T06:36:46.733Z,972.96
2018-09-15T06:37:46.686Z,972.94
2018-09-15T06:38:46.669Z,973.02
2018-09-15T06:39:46.576Z,973.02
2018-09-15T06:40:46.527Z,973.00
2018-09-15T06:41:46.484Z,972.97
2018-09-15T06:42:46.427Z,973.01
2018-09-15T06:43:46.420Z,973.01
2018-09-15T06:44:46.359Z,973.04
2018-09-15T06:45:46.372Z,973.05
2018-09-15T06:46:46.222Z,973.04
2018-09-15T06:47:46.170Z,973.05
2018-09-15T06:48:46.122Z,973.05
2018-09-15T06:49:46.105Z,973.08
2018-09-15T06:50:46.026Z,973.06
2018-09-15T06:51:46.000Z,973.12
2018-09-15T06:52:45.927Z,973.10
2018-09-15T06:53:45.963Z,973.08
2018-09-15T06:54:45.817Z,973.09
2018-09-15T06:55:45.796Z,973.07
2018-09-15T06:56:45.717Z,973.07
2018-09-15T06:57:45.683Z,973.12
2018-09-15T06:58:45.618Z,973.12
2018-09-15T06:59:45.569Z,973.15
2018-09-15T07:00:45.613Z,973.20
2018-09-15T07:01:45.467Z,973.17
2018-09-15T07:02:45.448Z,973.21
2018-09-15T07:03:45.367Z,973.20
2018-09-15T07:04:45.318Z,973.22
2018-09-15T07:05:45.272Z,973.24
2018-09-15T07:06:45.216Z,973.25
2018-09-15T07:07:45.199Z,973.26
2018-09-15T07:08:45.116Z,973.28
2018-09-15T07:09:45.069Z,973.33
2018-09-15T07:10:45.021Z,973.31
2018-09-15T07:11:44.997Z,973.37
2018-09-15T07:12:44.955Z,973.37
2018-09-15T07:13:44.866Z,973.42
2018-09-15T07:14:44.817Z,973.42
2018-09-15T07:15:44.774Z,973.44
2018-09-15T07:16:44.808Z,973.48
2018-09-15T07:17:44.706Z,973.47
2018-09-15T07:18:44.623Z,973.53
2018-09-15T07:19:44.570Z,973.51
2018-09-15T07:20:44.519Z,973.53
2018-09-15T07:21:44.475Z,973.49
2018-09-15T07:22:44.453Z,973.49
2018-09-15T07:23:44.394Z,973.49
2018-09-15T07:24:44.332Z,973.50
2018-09-15T07:25:44.287Z,973.53
2018-09-15T07:26:44.225Z,973.54
2018-09-15T07:27:44.216Z,973.57
2018-09-15T07:28:44.126Z,973.57
2018-09-15T07:29:44.082Z,973.60
2018-09-15T07:30:44.042Z,973.67
2018-09-15T07:31:43.986Z,973.65
2018-09-15T07:32:43.977Z,973.64
2018-09-15T07:33:43.881Z,973.63
2018-09-15T07:34:43.891Z,973.71
2018-09-15T07:35:43.786Z,973.76
2018-09-15T07:36:43.736Z,973.72
2018-09-15T07:37:43.778Z,973.74
2018-09-15T07:38:43.640Z,973.74
2018-09-15T07:39:43.590Z,973.77
2018-09-15T07:40:43.541Z,973.77
2018-09-15T07:41:43.534Z,973.82
2018-09-15T07:42:43.445Z,973.80
2018-09-15T07:43:43.394Z,973.81
2018-09-15T07:44:43.362Z,973.79
2018-09-15T07:45:43.303Z,973.82
2018-09-15T07:46:43.320Z,973.82
2018-09-15T07:47:43.206Z,973.79
2018-09-15T07:48:43.155Z,973.80
2018-09-15T07:49:43.109Z,973.82
2018-09-15T07:50:43.063Z,973.79
2018-09-15T07:51:43.181Z,973.82
2018-09-15T07:52:42.971Z,973.86
2018-09-15T07:53:42.922Z,973.88
2018-09-15T07:54:42.880Z,973.87
2018-09-15T07:55:42.826Z,973.90
2018-09-15T07:56:42.808Z,973.91
2018-09-15T07:57:42.789Z,973.97
2018-09-15T07:58:42.689Z,973.88
2018-09-15T07:59:42.640Z,973.89
2018-09-15T08:00:42.618Z,973.89
2018-09-15T08:01:42.581Z,973.89
2018-09-15T08:02:42.543Z,973.98
2018-09-15T08:03:42.459Z,973.98
2018-09-15T08:04:42.412Z,973.97
2018-09-15T08:05:42.402Z,973.97
2018-09-15T08:06:42.372Z,973.98
2018-09-15T08:07:42.310Z,973.97
2018-09-15T08:08:42.232Z,974.01
2018-09-15T08:09:42.230Z,973.98
2018-09-15T08:10:42.143Z,974.01
2018-09-15T08:11:51.322Z,973.95
2018-09-15T08:12:42.096Z,974.02
2018-09-15T08:13:42.018Z,974.00
2018-09-15T08:14:41.980Z,973.99
2018-09-15T08:15:41.930Z,974.01
2018-09-15T08:16:41.884Z,974.01
2018-09-15T08:17:41.877Z,973.97
2018-09-15T08:18:41.801Z,973.94
2018-09-15T08:19:41.761Z,973.96
2018-09-15T08:20:41.737Z,973.95
2018-09-15T08:21:41.666Z,973.97
2018-09-15T08:22:41.657Z,973.97
2018-09-15T08:23:41.609Z,973.99
2018-09-15T08:24:41.544Z,973.97
2018-09-15T08:25:41.495Z,973.98
2018-09-15T08:26:41.445Z,973.98
2018-09-15T08:27:41.444Z,974.01
2018-09-15T08:28:41.397Z,973.99
2018-09-15T08:29:41.312Z,974.03
2018-09-15T08:30:41.270Z,974.03
2018-09-15T08:31:41.221Z,974.06
2018-09-15T08:32:41.177Z,974.06
2018-09-15T08:33:41.179Z,974.12
2018-09-15T08:34:41.088Z,974.12
2018-09-15T08:35:41.045Z,974.12
2018-09-15T08:36:41.034Z,974.14
2018-09-15T08:37:41.020Z,974.13
2018-09-15T08:38:40.910Z,974.18
2018-09-15T08:39:40.868Z,974.15
2018-09-15T08:40:40.856Z,974.20
2018-09-15T08:41:40.783Z,974.18
2018-09-15T08:42:40.741Z,974.18
2018-09-15T08:43:40.700Z,974.22
2018-09-15T08:44:40.661Z,974.19
2018-09-15T08:45:40.659Z,974.14
2018-09-15T08:46:40.588Z,974.12
2018-09-15T08:47:40.555Z,974.22
2018-09-15T08:48:40.544Z,974.25
2018-09-15T08:49:40.456Z,974.28
2018-09-15T08:50:40.453Z,974.28
2018-09-15T08:51:40.375Z,974.29
2018-09-15T08:52:40.372Z,974.28
2018-09-15T08:53:40.295Z,974.26
2018-09-15T08:54:40.258Z,974.24
2018-09-15T08:55:40.218Z,974.32
2018-09-15T08:56:40.212Z,974.28
2018-09-15T08:57:40.143Z,974.32
2018-09-15T08:58:40.099Z,974.33
2018-09-15T08:59:40.065Z,974.30
2018-09-15T09:00:40.025Z,974.36
2018-09-15T09:01:40.016Z,974.35
2018-09-15T09:02:39.948Z,974.38
2018-09-15T09:03:39.929Z,974.43
2018-09-15T09:04:39.871Z,974.44
2018-09-15T09:05:39.832Z,974.48
2018-09-15T09:06:39.820Z,974.47
2018-09-15T09:07:39.751Z,974.48
2018-09-15T09:08:39.713Z,974.51
2018-09-15T09:09:39.672Z,974.44
2018-09-15T09:10:39.667Z,974.41
2018-09-15T09:11:39.592Z,974.53
2018-09-15T09:12:39.554Z,974.50
2018-09-15T09:13:39.556Z,974.44
2018-09-15T09:14:39.484Z,974.50
2018-09-15T09:15:39.476Z,974.50
2018-09-15T09:16:39.445Z,974.48
2018-09-15T09:17:39.366Z,974.49
2018-09-15T09:18:39.326Z,974.48
2018-09-15T09:19:39.285Z,974.45
2018-09-15T09:20:39.248Z,974.42
2018-09-15T09:21:39.241Z,974.41
2018-09-15T09:22:39.169Z,974.43
2018-09-15T09:23:39.170Z,974.42
2018-09-15T09:24:39.091Z,974.44
2018-09-15T09:25:39.053Z,974.43
2018-09-15T09:26:39.092Z,974.32
2018-09-15T09:27:38.975Z,974.37
2018-09-15T09:28:38.972Z,974.44
2018-09-15T09:29:38.933Z,974.46
2018-09-15T09:30:38.874Z,974.41
2018-09-15T09:31:38.819Z,974.43
2018-09-15T09:32:38.778Z,974.35
2018-09-15T09:33:38.742Z,974.39
2018-09-15T09:34:38.738Z,974.40
2018-09-15T09:35:38.659Z,974.43
2018-09-15T09:36:38.627Z,974.44
2018-09-15T09:37:38.719Z,974.41
2018-09-15T09:38:38.544Z,974.43
2018-09-15T09:39:38.514Z,974.48
2018-09-15T09:40:38.476Z,974.47
2018-09-15T09:41:38.434Z,974.45
2018-09-15T09:42:38.423Z,974.40
2018-09-15T09:43:38.348Z,974.51
2018-09-15T09:44:38.309Z,974.49
2018-09-15T09:45:38.302Z,974.47
2018-09-15T09:46:38.240Z,974.38
2018-09-15T09:47:38.190Z,974.41
2018-09-15T09:48:38.156Z,974.49
2018-09-15T09:49:38.119Z,974.49
2018-09-15T09:50:38.110Z,974.45
2018-09-15T09:51:38.033Z,974.47
2018-09-15T09:52:38.000Z,974.49
2018-09-15T09:53:37.956Z,974.50
2018-09-15T09:54:37.914Z,974.49
2018-09-15T09:55:37.913Z,974.47
2018-09-15T09:56:37.838Z,974.48
2018-09-15T09:57:37.825Z,974.46
2018-09-15T09:58:37.795Z,974.47
2018-09-15T09:59:37.726Z,974.39
2018-09-15T10:00:37.690Z,974.47
2018-09-15T10:01:37.678Z,974.43
2018-09-15T10:02:37.609Z,974.38
2018-09-15T10:03:37.570Z,974.39
2018-09-15T10:04:37.529Z,974.40
2018-09-15T10:05:37.483Z,974.41
2018-09-15T10:06:37.481Z,974.37
2018-09-15T10:07:37.406Z,974.37
2018-09-15T10:08:37.377Z,974.38
2018-09-15T10:09:37.367Z,974.39
2018-09-15T10:10:37.289Z,974.34
2018-09-15T10:11:37.251Z,974.33
2018-09-15T10:12:37.212Z,974.26
2018-09-15T10:13:37.213Z,974.31
2018-09-15T10:14:37.144Z,974.30
2018-09-15T10:15:37.096Z,974.39
2018-09-15T10:16:37.067Z,974.43
2018-09-15T10:17:37.023Z,974.43
2018-09-15T10:18:37.014Z,974.42
2018-09-15T10:19:36.936Z,974.39
2018-09-15T10:20:36.900Z,974.43
2018-09-15T10:21:36.958Z,974.40
2018-09-15T10:22:36.825Z,974.39
2018-09-15T10:23:36.820Z,974.31
2018-09-15T10:24:36.751Z,974.38
2018-09-15T10:25:36.842Z,974.40
2018-09-15T10:26:36.668Z,974.40
2018-09-15T10:27:36.628Z,974.35
2018-09-15T10:28:36.589Z,974.30
2018-09-15T10:29:36.548Z,974.32
2018-09-15T10:30:36.553Z,974.34
2018-09-15T10:31:36.472Z,974.37
2018-09-15T10:32:36.433Z,974.28
2018-09-15T10:33:36.394Z,974.29
2018-09-15T10:34:36.356Z,974.30
2018-09-15T10:35:36.354Z,974.25
2018-09-15T10:36:36.285Z,974.35
2018-09-15T10:37:36.275Z,974.29
2018-09-15T10:38:36.266Z,974.29
2018-09-15T10:39:36.158Z,974.29
2018-09-15T10:40:37.151Z,974.26
2018-09-15T10:41:36.083Z,974.30
2018-09-15T10:42:36.076Z,974.28
2018-09-15T10:43:36.035Z,974.26
2018-09-15T10:44:35.961Z,974.27
2018-09-15T10:45:35.923Z,974.19
2018-09-15T10:46:35.894Z,974.26
2018-09-15T10:47:35.847Z,974.16
2018-09-15T10:48:35.841Z,974.23
2018-09-15T10:49:35.765Z,974.16
2018-09-15T10:50:35.724Z,974.15
2018-09-15T10:51:35.730Z,974.18
2018-09-15T10:52:35.646Z,974.23
2018-09-15T10:53:35.606Z,974.26
2018-09-15T10:54:35.567Z,974.26
2018-09-15T10:55:35.562Z,974.27
2018-09-15T10:56:35.487Z,974.26
2018-09-15T10:57:35.443Z,974.30
2018-09-15T10:58:35.406Z,974.31
2018-09-15T10:59:35.403Z,974.20
2018-09-15T11:00:35.333Z,974.18
2018-09-15T11:01:35.286Z,974.20
2018-09-15T11:02:35.256Z,974.25
2018-09-15T11:03:35.206Z,974.19
2018-09-15T11:04:35.198Z,974.19
2018-09-15T11:05:35.173Z,974.22
2018-09-15T11:06:35.087Z,974.18
2018-09-15T11:07:35.048Z,974.16
2018-09-15T11:08:35.063Z,974.26
2018-09-15T11:09:34.969Z,974.32
2018-09-15T11:10:34.951Z,974.30
2018-09-15T11:11:34.888Z,974.33
2018-09-15T11:12:34.868Z,974.23
2018-09-15T11:13:34.905Z,974.23
2018-09-15T11:14:34.770Z,974.25
2018-09-15T11:15:35.414Z,974.21
2018-09-15T11:16:34.727Z,974.33
2018-09-15T11:17:34.651Z,974.28
2018-09-15T11:18:34.609Z,974.22
2018-09-15T11:19:34.605Z,974.19
2018-09-15T11:20:34.585Z,974.18
2018-09-15T11:21:34.491Z,974.18
2018-09-15T11:22:34.492Z,974.28
2018-09-15T11:23:34.414Z,974.21
2018-09-15T11:24:34.371Z,974.29
2018-09-15T11:25:34.371Z,974.27
2018-09-15T11:26:34.291Z,974.29
2018-09-15T11:27:34.253Z,974.26
2018-09-15T11:28:34.355Z,974.22
2018-09-15T11:29:34.204Z,974.25
2018-09-15T11:30:34.166Z,974.25
2018-09-15T11:31:34.092Z,974.24
2018-09-15T11:32:34.052Z,974.24
2018-09-15T11:33:34.008Z,974.29
2018-09-15T11:34:33.968Z,974.26
2018-09-15T11:35:33.962Z,974.27
2018-09-15T11:36:33.921Z,974.28
2018-09-15T11:37:33.848Z,974.25
2018-09-15T11:38:33.806Z,974.26
2018-09-15T11:39:33.765Z,974.22
2018-09-15T11:40:33.724Z,974.24
2018-09-15T11:41:33.720Z,974.20
2018-09-15T11:42:33.644Z,974.26
2018-09-15T11:43:33.651Z,974.24
2018-09-15T11:44:33.559Z,974.22
2018-09-15T11:45:33.521Z,974.26
2018-09-15T11:46:33.509Z,974.22
2018-09-15T11:47:33.434Z,974.23
2018-09-15T11:48:33.394Z,974.25
2018-09-15T11:49:33.355Z,974.22
2018-09-15T11:50:33.345Z,974.24
2018-09-15T11:51:33.267Z,974.25
2018-09-15T11:52:33.260Z,974.25
2018-09-15T11:53:33.187Z,974.24
2018-09-15T11:54:33.144Z,974.22
2018-09-15T11:55:33.134Z,974.21
2018-09-15T11:56:33.062Z,974.21
2018-09-15T11:57:33.021Z,974.20
2018-09-15T11:58:33.023Z,974.17
2018-09-15T11:59:32.937Z,974.15
2018-09-15T12:00:32.901Z,974.16
2018-09-15T12:01:32.852Z,974.11
2018-09-15T12:02:32.846Z,974.15
2018-09-15T12:03:32.768Z,974.14
2018-09-15T12:04:32.726Z,974.14
2018-09-15T12:05:32.684Z,974.15
2018-09-15T12:06:32.644Z,974.13
2018-09-15T12:07:32.633Z,974.14
2018-09-15T12:08:32.563Z,974.16
2018-09-15T12:09:32.519Z,974.09
2018-09-15T12:10:32.476Z,974.14
2018-09-15T12:11:32.465Z,974.16
2018-09-15T12:12:32.393Z,974.12
2018-09-15T12:13:32.347Z,974.11
2018-09-15T12:14:32.307Z,974.05
2018-09-15T12:15:32.319Z,974.06
2018-09-15T12:16:32.223Z,974.07
2018-09-15T12:17:32.188Z,974.06
2018-09-15T12:18:32.140Z,974.02
2018-09-15T12:19:32.097Z,974.09
2018-09-15T12:20:32.090Z,974.04
2018-09-15T12:21:32.058Z,974.09
2018-09-15T12:22:31.972Z,974.11
2018-09-15T12:23:31.961Z,974.16
2018-09-15T12:24:31.885Z,974.14
2018-09-15T12:25:31.845Z,974.16
2018-09-15T12:26:31.840Z,974.16
2018-09-15T12:27:31.760Z,974.14